Time;durP1;ratioP1;P1;durP2;ratioP2;P2;SDS_P1;SDS_P2;PMS_P1;PMS_P2;Temp;Humidity;BMP_temperature;BMP_pressure;BME280_temperature;BME280_humidity;BME280_pressure;Samples;Min_cycle;Max_cycle;Signal;HPM_P1;HPM_P2
2021/12/06 00:00:32;;;;;;;12.73;8.85;;;;;11.60;101013.00;;;;5011857;28;20239;-82
2021/12/06 00:03:02;;;;;;;12.52;8.38;;;;;11.60;101008.00;;;;5029752;28;20197;-82
2021/12/06 00:05:30;;;;;;;11.75;7.85;;;;;11.60;101010.00;;;;5027707;28;20210;-82
2021/12/06 00:07:59;;;;;;;14.48;8.38;;;;;11.60;101006.00;;;;5030072;28;20208;-82
2021/12/06 00:10:27;;;;;;;10.98;7.43;;;;;11.60;101013.00;;;;5028376;28;20189;-82
2021/12/06 00:12:54;;;;;;;10.05;7.25;;;;;11.60;101015.00;;;;5029553;28;20207;-81
2021/12/06 00:15:21;;;;;;;12.18;7.90;;;;;11.60;101017.00;;;;5029223;28;20246;-82
2021/12/06 00:17:49;;;;;;;12.38;7.75;;;;;11.60;101015.00;;;;5030108;28;20200;-82
2021/12/06 00:20:16;;;;;;;10.60;7.65;;;;;11.60;101006.00;;;;5028785;28;20640;-82
2021/12/06 00:22:44;;;;;;;12.25;8.77;;;;;11.60;101017.00;;;;5029760;28;20200;-82
2021/12/06 00:25:14;;;;;;;11.50;8.18;;;;;11.60;101017.00;;;;5029253;28;20192;-82
2021/12/06 00:27:42;;;;;;;11.77;8.57;;;;;11.60;101028.00;;;;5030098;28;20210;-82
2021/12/06 00:30:15;;;;;;;11.27;8.02;;;;;11.60;101028.00;;;;5029385;28;20196;-81
2021/12/06 00:32:43;;;;;;;10.05;7.30;;;;;11.60;101036.00;;;;5028983;28;20535;-82
2021/12/06 00:35:18;;;;;;;10.68;7.80;;;;;11.60;101043.00;;;;5030163;28;20563;-81
2021/12/06 00:37:54;;;;;;;10.98;7.95;;;;;11.60;101050.00;;;;5027167;28;20207;-82
2021/12/06 00:40:24;;;;;;;10.88;8.25;;;;;11.60;101049.00;;;;5029667;28;20204;-82
2021/12/06 00:42:51;;;;;;;12.80;8.00;;;;;11.60;101056.00;;;;5028925;28;20196;-82
2021/12/06 00:45:19;;;;;;;11.23;8.02;;;;;11.60;101059.00;;;;5029031;28;20192;-82
2021/12/06 00:47:47;;;;;;;11.35;7.63;;;;;11.60;101071.00;;;;5029197;28;20200;-82
2021/12/06 00:50:15;;;;;;;9.35;7.90;;;;;11.60;101072.00;;;;5028600;28;20262;-82
2021/12/06 00:52:43;;;;;;;13.50;9.00;;;;;11.50;101075.00;;;;5029415;28;20197;-82
2021/12/06 00:55:11;;;;;;;12.98;8.82;;;;;11.50;101077.00;;;;5021204;28;20483;-81
2021/12/06 00:57:40;;;;;;;11.88;8.45;;;;;11.50;101077.00;;;;5024208;28;20207;-83
2021/12/06 01:00:12;;;;;;;11.90;8.27;;;;;11.50;101074.00;;;;5029701;28;20224;-82
2021/12/06 01:02:39;;;;;;;11.45;8.27;;;;;11.50;101082.00;;;;5027915;28;20207;-83
2021/12/06 01:05:07;;;;;;;11.13;7.72;;;;;11.50;101088.00;;;;5029305;28;20701;-83
2021/12/06 01:07:35;;;;;;;11.90;8.18;;;;;11.50;101091.00;;;;5029121;28;20208;-83
2021/12/06 01:10:03;;;;;;;11.75;8.57;;;;;11.50;101092.00;;;;5028686;28;20207;-83
2021/12/06 01:12:30;;;;;;;14.20;9.55;;;;;11.50;101095.00;;;;5017375;28;20227;-83
2021/12/06 01:14:59;;;;;;;17.65;9.00;;;;;11.40;101100.00;;;;5021077;28;20254;-82
2021/12/06 01:17:26;;;;;;;14.25;8.98;;;;;11.40;101100.00;;;;5027134;28;20212;-82
2021/12/06 01:19:54;;;;;;;11.80;8.30;;;;;11.50;101099.00;;;;5028953;28;20220;-83
2021/12/06 01:22:31;;;;;;;13.25;8.98;;;;;11.40;101099.00;;;;5028079;28;20685;-83
2021/12/06 01:25:02;;;;;;;14.27;8.52;;;;;11.40;101101.00;;;;5028755;28;20196;-83
2021/12/06 01:27:46;;;;;;;12.30;8.52;;;;;11.40;101106.00;;;;5028446;28;20196;-83
2021/12/06 01:30:30;;;;;;;16.33;8.35;;;;;11.40;101101.00;;;;5027905;28;20201;-83
2021/12/06 01:33:29;;;;;;;14.18;9.70;;;;;11.40;101102.00;;;;5028747;28;20200;-83
2021/12/06 01:41:51;;;;;;;16.13;9.52;;;;;11.30;101113.00;;;;5000817;28;20236;-82
2021/12/06 01:44:21;;;;;;;13.32;7.95;;;;;11.30;101117.00;;;;5011642;28;20592;-82
2021/12/06 01:46:53;;;;;;;12.98;8.38;;;;;11.30;101118.00;;;;5017178;28;20192;-83
2021/12/06 01:49:22;;;;;;;13.40;9.15;;;;;11.40;101115.00;;;;5027068;28;20200;-83
2021/12/06 01:51:52;;;;;;;14.77;9.13;;;;;11.40;101120.00;;;;5027805;28;20236;-83
2021/12/06 01:54:21;;;;;;;16.38;10.13;;;;;11.40;101122.00;;;;5027503;28;20266;-82
2021/12/06 01:56:49;;;;;;;14.38;9.20;;;;;11.40;101127.00;;;;5027974;28;20200;-83
2021/12/06 01:59:17;;;;;;;14.65;9.88;;;;;11.40;101128.00;;;;5027917;28;20235;-83
2021/12/06 02:01:45;;;;;;;17.08;8.98;;;;;11.40;101124.00;;;;5028163;28;20679;-82
2021/12/06 02:04:15;;;;;;;13.85;8.70;;;;;11.40;101124.00;;;;5017383;28;20227;-83
2021/12/06 02:06:42;;;;;;;13.68;8.48;;;;;11.40;101119.00;;;;5008712;28;20205;-82
2021/12/06 02:09:12;;;;;;;16.67;9.73;;;;;11.40;101125.00;;;;5013478;28;20236;-83
2021/12/06 02:11:42;;;;;;;16.90;9.80;;;;;11.50;101130.00;;;;5028824;28;20188;-83
2021/12/06 02:14:24;;;;;;;15.68;8.80;;;;;11.50;101128.00;;;;5027337;28;20195;-83
2021/12/06 02:17:08;;;;;;;15.25;9.15;;;;;11.50;101141.00;;;;5027551;28;20196;-83
2021/12/06 02:19:44;;;;;;;15.18;9.07;;;;;11.40;101134.00;;;;5026141;28;20319;-83
2021/12/06 02:22:16;;;;;;;16.35;9.25;;;;;11.50;101137.00;;;;5027691;28;20204;-83
2021/12/06 02:24:44;;;;;;;12.98;9.32;;;;;11.50;101143.00;;;;5027355;28;20693;-83
2021/12/06 02:27:13;;;;;;;13.60;9.05;;;;;11.50;101151.00;;;;5028131;28;20188;-82
2021/12/06 02:29:42;;;;;;;15.18;9.13;;;;;11.50;101142.00;;;;5027621;28;20200;-83
2021/12/06 02:32:12;;;;;;;14.90;9.40;;;;;11.60;101152.00;;;;5027783;28;20208;-83
2021/12/06 02:34:42;;;;;;;14.90;9.60;;;;;11.60;101152.00;;;;5028178;28;20607;-83
2021/12/06 02:37:10;;;;;;;14.70;9.88;;;;;11.60;101153.00;;;;5024260;28;20204;-83
2021/12/06 02:39:39;;;;;;;14.85;9.27;;;;;11.60;101155.00;;;;5031170;28;20239;-83
2021/12/06 02:42:09;;;;;;;18.00;9.75;;;;;11.60;101155.00;;;;5014441;28;20224;-83
2021/12/06 02:44:36;;;;;;;16.88;9.40;;;;;11.70;101162.00;;;;5026491;28;20666;-83
2021/12/06 02:47:04;;;;;;;18.00;8.93;;;;;11.70;101158.00;;;;5031357;28;20326;-83
2021/12/06 02:49:32;;;;;;;13.52;8.48;;;;;11.70;101159.00;;;;5031292;28;20579;-83
2021/12/06 02:51:59;;;;;;;15.98;10.40;;;;;11.70;101163.00;;;;5030768;28;20207;-83
2021/12/06 02:54:27;;;;;;;16.90;9.57;;;;;11.70;101162.00;;;;5020503;28;20742;-83
2021/12/06 02:57:07;;;;;;;15.35;9.85;;;;;11.70;101164.00;;;;5015453;28;20199;-83
2021/12/06 02:59:35;;;;;;;15.82;9.88;;;;;11.70;101169.00;;;;5031373;28;20232;-83
2021/12/06 03:02:07;;;;;;;19.50;9.98;;;;;11.70;101163.00;;;;5031481;28;20204;-83
2021/12/06 03:04:34;;;;;;;17.13;10.43;;;;;11.70;101164.00;;;;5031261;28;20200;-83
2021/12/06 03:07:02;;;;;;;16.15;9.70;;;;;11.70;101164.00;;;;5030098;28;20200;-83
2021/12/06 03:09:35;;;;;;;13.95;9.18;;;;;11.70;101169.00;;;;5030936;28;20278;-83
2021/12/06 03:12:07;;;;;;;14.13;8.55;;;;;11.70;101167.00;;;;5017054;28;20689;-83
2021/12/06 03:14:38;;;;;;;13.82;8.25;;;;;11.80;101168.00;;;;5030643;28;20547;-84
2021/12/06 03:17:11;;;;;;;14.73;9.32;;;;;11.80;101168.00;;;;5030948;28;20208;-84
2021/12/06 03:19:39;;;;;;;14.55;9.40;;;;;11.80;101170.00;;;;5030378;28;20698;-83
2021/12/06 03:22:08;;;;;;;16.15;9.02;;;;;11.80;101161.00;;;;5031174;28;20195;-84
2021/12/06 03:24:36;;;;;;;15.32;9.43;;;;;11.80;101178.00;;;;5031249;28;20236;-84
2021/12/06 03:27:05;;;;;;;15.85;10.35;;;;;11.80;101175.00;;;;5030928;28;20203;-84
2021/12/06 03:29:32;;;;;;;19.45;9.70;;;;;11.80;101168.00;;;;5024536;28;20204;-83
2021/12/06 03:32:00;;;;;;;13.93;9.23;;;;;11.80;101172.00;;;;5030740;28;20196;-83
2021/12/06 03:34:28;;;;;;;15.70;9.27;;;;;11.80;101173.00;;;;5030108;28;20661;-84
2021/12/06 03:36:58;;;;;;;16.75;9.52;;;;;11.80;101176.00;;;;5030291;28;20196;-83
2021/12/06 03:39:29;;;;;;;19.92;9.73;;;;;11.80;101175.00;;;;5030422;28;20228;-83
2021/12/06 03:42:01;;;;;;;14.18;9.40;;;;;11.80;101175.00;;;;5030603;28;20628;-83
2021/12/06 03:44:30;;;;;;;15.90;10.27;;;;;11.80;101175.00;;;;5029526;28;20219;-84
2021/12/06 03:47:00;;;;;;;16.33;10.18;;;;;11.80;101178.00;;;;5029437;28;20201;-84
2021/12/06 03:49:28;;;;;;;15.40;9.48;;;;;11.80;101183.00;;;;5029873;28;20235;-83
2021/12/06 03:51:55;;;;;;;17.42;10.40;;;;;11.80;101181.00;;;;5030592;28;20197;-84
2021/12/06 03:54:25;;;;;;;16.25;9.13;;;;;11.80;101180.00;;;;5029985;28;20235;-84
2021/12/06 03:56:53;;;;;;;14.77;9.60;;;;;11.80;101186.00;;;;5030615;28;20251;-84
2021/12/06 03:59:20;;;;;;;18.35;10.45;;;;;11.80;101187.00;;;;5029920;28;20231;-83
2021/12/06 04:01:49;;;;;;;14.85;9.65;;;;;11.80;101198.00;;;;5025121;28;20296;-83
2021/12/06 04:04:17;;;;;;;18.52;9.98;;;;;11.90;101195.00;;;;5025791;28;20204;-84
2021/12/06 04:06:45;;;;;;;17.05;9.15;;;;;11.90;101193.00;;;;5030444;28;20671;-83
2021/12/06 04:09:12;;;;;;;16.15;9.40;;;;;11.90;101195.00;;;;5029837;28;20200;-83
2021/12/06 04:11:40;;;;;;;14.25;9.50;;;;;11.90;101188.00;;;;5030653;28;20196;-83
2021/12/06 04:14:08;;;;;;;19.15;10.38;;;;;11.90;101181.00;;;;5030228;28;20184;-84
2021/12/06 04:16:36;;;;;;;15.43;9.25;;;;;11.90;101181.00;;;;5028955;28;20192;-83
2021/12/06 04:19:06;;;;;;;16.92;10.23;;;;;11.90;101171.00;;;;5028672;28;20204;-83
2021/12/06 04:21:34;;;;;;;17.52;9.77;;;;;11.90;101177.00;;;;5029512;28;20196;-83
2021/12/06 04:24:02;;;;;;;15.88;9.95;;;;;11.90;101184.00;;;;5029962;28;20207;-84
2021/12/06 04:26:30;;;;;;;18.20;9.95;;;;;11.90;101182.00;;;;5029618;28;20579;-83
2021/12/06 04:28:59;;;;;;;15.98;10.40;;;;;11.90;101189.00;;;;5030044;28;20201;-83
2021/12/06 04:31:27;;;;;;;18.17;10.57;;;;;11.90;101190.00;;;;5028728;28;20287;-83
2021/12/06 04:33:55;;;;;;;15.35;9.80;;;;;11.90;101188.00;;;;5030451;28;20212;-83
2021/12/06 04:36:24;;;;;;;13.98;9.10;;;;;11.90;101190.00;;;;5026932;28;20205;-83
2021/12/06 04:38:51;;;;;;;15.00;10.15;;;;;11.90;101183.00;;;;5030379;28;20224;-83
2021/12/06 04:41:18;;;;;;;15.43;8.75;;;;;11.90;101186.00;;;;5028773;28;20228;-84
2021/12/06 04:43:46;;;;;;;13.98;9.38;;;;;11.90;101182.00;;;;5029087;28;20201;-84
2021/12/06 04:46:13;;;;;;;14.68;9.35;;;;;11.90;101186.00;;;;5029396;28;20208;-83
2021/12/06 04:48:41;;;;;;;16.25;9.30;;;;;11.90;101189.00;;;;5029255;28;20199;-83
2021/12/06 04:51:12;;;;;;;14.77;8.90;;;;;11.90;101190.00;;;;5030061;28;20207;-83
2021/12/06 04:53:42;;;;;;;14.02;9.50;;;;;11.90;101194.00;;;;5027516;28;20204;-83
2021/12/06 04:56:19;;;;;;;19.52;9.75;;;;;11.90;101185.00;;;;5029941;28;20200;-84
2021/12/06 04:58:51;;;;;;;14.82;9.23;;;;;11.90;101200.00;;;;5028915;28;20207;-84
2021/12/06 05:01:22;;;;;;;13.70;9.07;;;;;11.90;101196.00;;;;5027486;28;20235;-83
2021/12/06 05:03:51;;;;;;;18.10;10.50;;;;;11.90;101200.00;;;;5029341;28;20211;-83
2021/12/06 05:06:21;;;;;;;14.90;9.38;;;;;11.90;101205.00;;;;5028952;28;20219;-83
2021/12/06 05:08:52;;;;;;;16.25;9.93;;;;;11.80;101203.00;;;;5028527;28;20188;-83
2021/12/06 05:11:21;;;;;;;16.25;10.13;;;;;11.90;101207.00;;;;5010858;28;20212;-83
2021/12/06 05:13:51;;;;;;;16.20;9.55;;;;;11.80;101210.00;;;;5025952;28;20234;-83
2021/12/06 05:16:18;;;;;;;14.57;9.18;;;;;11.80;101208.00;;;;5028642;28;20637;-83
2021/12/06 05:18:46;;;;;;;15.82;10.35;;;;;11.80;101203.00;;;;5028719;28;20207;-83
2021/12/06 05:21:13;;;;;;;18.27;10.20;;;;;11.80;101199.00;;;;5027448;28;20220;-84
2021/12/06 05:23:40;;;;;;;16.85;9.85;;;;;11.80;101205.00;;;;5028388;28;20200;-85
2021/12/06 05:26:09;;;;;;;14.68;8.63;;;;;11.80;101199.00;;;;5028719;28;20203;-83
2021/12/06 05:28:41;;;;;;;14.60;9.85;;;;;11.80;101191.00;;;;5023691;28;20215;-84
2021/12/06 05:31:14;;;;;;;14.95;9.25;;;;;11.70;101184.00;;;;5027588;28;20196;-83
2021/12/06 05:33:42;;;;;;;14.80;9.40;;;;;11.70;101192.00;;;;5024419;28;20196;-84
2021/12/06 05:36:10;;;;;;;19.15;10.00;;;;;11.70;101190.00;;;;5028594;28;20858;-83
2021/12/06 05:38:37;;;;;;;16.98;10.02;;;;;11.70;101184.00;;;;5028247;28;20227;-84
2021/12/06 05:41:04;;;;;;;17.25;9.77;;;;;11.70;101189.00;;;;5029606;28;20639;-83
2021/12/06 05:43:35;;;;;;;19.27;11.20;;;;;11.70;101185.00;;;;5024064;28;20192;-83
2021/12/06 05:46:03;;;;;;;16.42;10.75;;;;;11.70;101190.00;;;;5009981;28;20208;-83
2021/12/06 05:48:30;;;;;;;16.40;10.10;;;;;11.70;101191.00;;;;5028532;28;20199;-84
2021/12/06 05:50:58;;;;;;;17.48;10.45;;;;;11.70;101199.00;;;;5028826;28;20200;-83
2021/12/06 05:53:26;;;;;;;16.65;9.88;;;;;11.70;101207.00;;;;5027592;28;20428;-83
2021/12/06 05:55:54;;;;;;;17.05;10.48;;;;;11.70;101205.00;;;;5027960;28;20224;-84
2021/12/06 05:58:24;;;;;;;17.42;9.57;;;;;11.70;101210.00;;;;5027983;28;20729;-83
2021/12/06 06:00:53;;;;;;;16.63;9.60;;;;;11.80;101216.00;;;;5021735;28;20252;-83
2021/12/06 06:03:21;;;;;;;16.33;9.50;;;;;11.80;101217.00;;;;5024468;28;20208;-84
2021/12/06 06:05:49;;;;;;;18.35;10.43;;;;;11.80;101217.00;;;;5027213;28;20203;-84
2021/12/06 06:08:16;;;;;;;20.23;10.60;;;;;11.80;101225.00;;;;5027275;28;20597;-83
2021/12/06 06:10:45;;;;;;;18.05;10.68;;;;;11.80;101222.00;;;;5028501;28;20242;-84
2021/12/06 06:13:13;;;;;;;16.38;10.57;;;;;11.80;101224.00;;;;5029829;28;20200;-83
2021/12/06 06:15:41;;;;;;;18.15;10.73;;;;;11.80;101227.00;;;;5027453;28;20200;-83
2021/12/06 06:18:10;;;;;;;17.63;10.68;;;;;11.80;101227.00;;;;5025137;28;20780;-84
2021/12/06 06:20:41;;;;;;;17.45;10.88;;;;;11.80;101230.00;;;;5023874;28;20215;-83
2021/12/06 06:23:09;;;;;;;16.33;10.70;;;;;11.80;101224.00;;;;5027649;28;20200;-83
2021/12/06 06:25:38;;;;;;;17.77;10.07;;;;;11.80;101230.00;;;;5024600;28;20200;-83
2021/12/06 06:28:06;;;;;;;18.05;10.20;;;;;11.80;101228.00;;;;5028743;28;20207;-84
2021/12/06 06:30:35;;;;;;;15.50;9.60;;;;;11.80;101223.00;;;;5031707;28;20188;-84
2021/12/06 06:33:02;;;;;;;18.00;10.55;;;;;11.80;101229.00;;;;5030590;28;20674;-84
2021/12/06 06:35:32;;;;;;;16.80;10.73;;;;;11.80;101230.00;;;;5025594;28;20200;-83
2021/12/06 06:37:59;;;;;;;18.65;10.77;;;;;11.80;101230.00;;;;5030633;28;20196;-83
2021/12/06 06:40:27;;;;;;;17.63;10.02;;;;;11.80;101235.00;;;;5032403;28;20223;-84
2021/12/06 06:42:55;;;;;;;16.77;9.88;;;;;11.80;101233.00;;;;5034938;28;20216;-84
2021/12/06 06:45:23;;;;;;;18.75;10.65;;;;;11.80;101243.00;;;;5028990;28;20193;-84
2021/12/06 06:47:51;;;;;;;18.67;10.45;;;;;11.80;101244.00;;;;5031830;28;20235;-82
2021/12/06 06:50:19;;;;;;;17.73;10.50;;;;;11.80;101249.00;;;;5030407;28;20203;-81
2021/12/06 06:52:49;;;;;;;16.98;10.55;;;;;11.80;101242.00;;;;5029622;28;20204;-80
2021/12/06 06:55:17;;;;;;;13.40;8.35;;;;;11.80;101245.00;;;;5030265;28;20239;-81
2021/12/06 06:57:46;;;;;;;17.90;9.80;;;;;11.80;101239.00;;;;5027808;28;20221;-81
2021/12/06 07:00:16;;;;;;;18.83;10.65;;;;;11.70;101240.00;;;;5030838;28;20620;-81
2021/12/06 07:02:44;;;;;;;16.05;9.57;;;;;11.70;101241.00;;;;5031102;28;20198;-81
2021/12/06 07:05:14;;;;;;;20.17;9.80;;;;;11.70;101243.00;;;;5031238;28;20620;-83
2021/12/06 07:07:42;;;;;;;17.23;10.80;;;;;11.70;101251.00;;;;5031306;28;20200;-82
2021/12/06 07:10:11;;;;;;;18.02;10.75;;;;;11.60;101249.00;;;;5025465;28;20208;-80
2021/12/06 07:12:45;;;;;;;16.33;8.48;;;;;11.60;101251.00;;;;5030891;28;20694;-81
2021/12/06 07:15:14;;;;;;;18.27;9.68;;;;;11.60;101259.00;;;;5030527;28;20193;-82
2021/12/06 07:17:42;;;;;;;20.42;11.63;;;;;11.60;101264.00;;;;5030536;28;20200;-81
2021/12/06 07:20:10;;;;;;;18.33;10.57;;;;;11.60;101260.00;;;;5030568;28;20196;-82
2021/12/06 07:22:37;;;;;;;19.60;11.05;;;;;11.60;101260.00;;;;5029602;28;20200;-82
2021/12/06 07:25:06;;;;;;;17.70;11.02;;;;;11.70;101256.00;;;;5031007;28;20200;-82
2021/12/06 07:27:34;;;;;;;21.08;11.23;;;;;11.60;101259.00;;;;5029655;28;20208;-81
2021/12/06 07:30:02;;;;;;;17.67;9.95;;;;;11.70;101262.00;;;;5026545;28;20200;-81
2021/12/06 07:32:30;;;;;;;18.10;11.13;;;;;11.70;101262.00;;;;5030297;28;20216;-81
2021/12/06 07:34:57;;;;;;;17.60;10.65;;;;;11.70;101274.00;;;;5027524;28;20227;-80
2021/12/06 07:37:24;;;;;;;19.65;11.55;;;;;11.70;101270.00;;;;5030824;28;20211;-81
2021/12/06 07:39:51;;;;;;;16.77;10.45;;;;;11.70;101258.00;;;;5031405;28;20219;-81
2021/12/06 07:42:19;;;;;;;17.80;11.07;;;;;11.70;101254.00;;;;5028110;28;20608;-81
2021/12/06 07:44:50;;;;;;;17.02;10.52;;;;;11.70;101251.00;;;;5028623;28;20202;-81
2021/12/06 07:47:18;;;;;;;17.60;9.68;;;;;11.70;101247.00;;;;5029522;28;20200;-81
2021/12/06 07:49:45;;;;;;;16.38;10.25;;;;;11.70;101254.00;;;;5031341;28;20215;-81
2021/12/06 07:52:13;;;;;;;16.83;9.93;;;;;11.70;101240.00;;;;5030066;28;20204;-80
2021/12/06 07:54:42;;;;;;;17.98;10.80;;;;;11.70;101244.00;;;;5029713;28;20228;-81
2021/12/06 07:57:10;;;;;;;17.00;10.05;;;;;11.70;101244.00;;;;5030111;28;20196;-81
2021/12/06 07:59:39;;;;;;;18.95;10.07;;;;;11.70;101242.00;;;;5021079;28;20201;-81
2021/12/06 08:02:09;;;;;;;16.00;9.43;;;;;11.60;101235.00;;;;5028860;28;21074;-80
2021/12/06 08:04:38;;;;;;;16.42;10.05;;;;;11.70;101230.00;;;;5025640;28;20204;-80
2021/12/06 08:07:05;;;;;;;37.65;10.73;;;;;11.70;101229.00;;;;5026937;28;20224;-79
2021/12/06 08:09:32;;;;;;;14.48;8.80;;;;;11.70;101231.00;;;;5028571;28;20215;-79
2021/12/06 08:12:00;;;;;;;18.25;10.50;;;;;11.70;101227.00;;;;5025137;28;20597;-81
2021/12/06 08:14:27;;;;;;;16.60;10.50;;;;;11.70;101227.00;;;;5026680;28;20196;-81
2021/12/06 08:16:55;;;;;;;17.33;10.73;;;;;11.60;101237.00;;;;5022776;28;20208;-81
2021/12/06 08:19:23;;;;;;;15.07;10.27;;;;;11.60;101233.00;;;;5024504;28;20292;-81
2021/12/06 08:21:50;;;;;;;17.30;10.82;;;;;11.60;101234.00;;;;5023625;28;20224;-81
2021/12/06 08:24:18;;;;;;;22.67;11.73;;;;;11.60;101237.00;;;;5028322;28;20192;-82
2021/12/06 08:26:47;;;;;;;16.77;10.35;;;;;11.60;101243.00;;;;5027950;28;20538;-82
2021/12/06 08:29:16;;;;;;;16.05;9.48;;;;;11.60;101251.00;;;;5027835;28;20227;-80
2021/12/06 08:31:44;;;;;;;18.70;10.48;;;;;11.50;101250.00;;;;5026832;28;20200;-81
2021/12/06 08:34:12;;;;;;;19.23;10.50;;;;;11.50;101257.00;;;;5026784;28;20211;-80
2021/12/06 08:36:41;;;;;;;14.18;9.32;;;;;11.50;101248.00;;;;5028254;28;20866;-81
2021/12/06 08:39:09;;;;;;;14.10;9.40;;;;;11.50;101250.00;;;;5028788;28;20640;-80
2021/12/06 08:41:37;;;;;;;14.02;9.88;;;;;11.40;101244.00;;;;5026179;28;20238;-81
2021/12/06 08:44:04;;;;;;;17.48;10.68;;;;;11.40;101240.00;;;;5028196;28;20240;-81
2021/12/06 08:46:35;;;;;;;14.38;9.90;;;;;11.40;101246.00;;;;5027736;28;20208;-81
2021/12/06 08:49:05;;;;;;;16.45;9.73;;;;;11.40;101244.00;;;;5028579;28;20584;-81
2021/12/06 08:51:36;;;;;;;18.13;9.60;;;;;11.40;101254.00;;;;5024311;28;20200;-80
2021/12/06 08:54:07;;;;;;;16.92;9.82;;;;;11.40;101257.00;;;;5028041;28;20208;-81
2021/12/06 08:56:36;;;;;;;15.90;9.75;;;;;11.40;101263.00;;;;5028217;28;20191;-80
2021/12/06 08:59:04;;;;;;;18.08;11.15;;;;;11.50;101263.00;;;;5026588;28;20196;-80
2021/12/06 09:01:31;;;;;;;15.15;9.90;;;;;11.50;101266.00;;;;5025427;28;20231;-81
2021/12/06 09:03:59;;;;;;;18.08;10.65;;;;;11.50;101263.00;;;;5028482;28;20212;-80
2021/12/06 09:06:26;;;;;;;16.42;9.55;;;;;11.50;101269.00;;;;5028298;28;20204;-81
2021/12/06 09:08:55;;;;;;;20.33;11.40;;;;;11.60;101266.00;;;;5027167;28;20204;-82
2021/12/06 09:11:24;;;;;;;18.65;11.43;;;;;11.60;101275.00;;;;5026460;28;20200;-82
2021/12/06 09:13:51;;;;;;;17.52;11.23;;;;;11.60;101278.00;;;;5027226;28;20208;-84
2021/12/06 09:16:19;;;;;;;17.92;11.10;;;;;11.50;101282.00;;;;5027458;28;20204;-82
2021/12/06 09:18:47;;;;;;;14.80;9.52;;;;;11.60;101279.00;;;;5028104;28;20280;-82
2021/12/06 09:21:18;;;;;;;16.27;9.35;;;;;11.60;101274.00;;;;5026719;28;20232;-81
2021/12/06 09:23:46;;;;;;;12.25;8.55;;;;;11.60;101281.00;;;;5027260;28;20232;-81
2021/12/06 09:26:14;;;;;;;14.38;8.82;;;;;11.50;101276.00;;;;5019357;28;20200;-81
2021/12/06 09:28:43;;;;;;;12.90;8.77;;;;;11.50;101274.00;;;;5025682;28;20200;-81
2021/12/06 09:31:11;;;;;;;11.98;8.07;;;;;11.50;101269.00;;;;5026166;28;20209;-81
2021/12/06 09:33:39;;;;;;;12.38;8.13;;;;;11.60;101280.00;;;;5026456;28;20203;-81
2021/12/06 09:36:09;;;;;;;12.00;7.70;;;;;11.60;101278.00;;;;5026959;28;20204;-82
2021/12/06 09:38:39;;;;;;;14.00;9.23;;;;;11.60;101276.00;;;;5016969;28;20212;-81
2021/12/06 09:41:10;;;;;;;13.27;8.32;;;;;11.60;101278.00;;;;5025884;28;20251;-83
2021/12/06 09:43:39;;;;;;;13.27;8.35;;;;;11.60;101283.00;;;;5026490;28;20207;-82
2021/12/06 09:46:10;;;;;;;12.25;8.43;;;;;11.60;101280.00;;;;5027963;28;20200;-83
2021/12/06 09:48:38;;;;;;;16.10;10.15;;;;;11.60;101277.00;;;;5027362;28;20211;-83
2021/12/06 09:51:09;;;;;;;14.88;9.70;;;;;11.50;101271.00;;;;5026934;28;20194;-82
2021/12/06 09:53:38;;;;;;;12.00;8.52;;;;;11.60;101268.00;;;;5024815;28;20250;-82
2021/12/06 09:56:09;;;;;;;13.10;8.65;;;;;11.60;101267.00;;;;5025929;28;20299;-82
2021/12/06 09:58:38;;;;;;;15.75;9.60;;;;;11.60;101276.00;;;;5025398;28;20326;-82
2021/12/06 10:01:11;;;;;;;13.75;9.35;;;;;11.60;101269.00;;;;5026747;28;20208;-83
2021/12/06 10:03:40;;;;;;;13.40;8.65;;;;;11.60;101266.00;;;;5026387;28;20196;-81
2021/12/06 10:06:08;;;;;;;14.25;8.55;;;;;11.60;101253.00;;;;5026482;28;20208;-79
2021/12/06 10:08:38;;;;;;;12.73;8.52;;;;;11.60;101253.00;;;;5026437;28;20258;-83
2021/12/06 10:11:07;;;;;;;16.00;9.93;;;;;11.60;101259.00;;;;5027344;28;20218;-82
2021/12/06 10:13:36;;;;;;;15.10;9.82;;;;;11.60;101267.00;;;;5026389;28;20204;-83
2021/12/06 10:16:04;;;;;;;13.23;8.98;;;;;11.60;101266.00;;;;5026631;28;20207;-83
2021/12/06 10:18:33;;;;;;;13.55;8.70;;;;;11.60;101264.00;;;;5027223;28;20558;-82
2021/12/06 10:21:01;;;;;;;16.67;10.00;;;;;11.60;101249.00;;;;5025544;28;20201;-83
2021/12/06 10:23:29;;;;;;;15.45;9.18;;;;;11.60;101245.00;;;;5020326;28;21407;-83
2021/12/06 10:25:57;;;;;;;17.85;10.48;;;;;11.60;101236.00;;;;5017554;28;20193;-83
2021/12/06 10:28:28;;;;;;;19.42;11.38;;;;;11.60;101234.00;;;;5018558;28;20197;-84
2021/12/06 10:30:59;;;;;;;22.85;11.45;;;;;11.60;101225.00;;;;5017856;28;20208;-83
2021/12/06 10:33:37;;;;;;;21.30;11.88;;;;;11.60;101227.00;;;;5022855;28;20204;-84
2021/12/06 10:36:09;;;;;;;23.80;12.05;;;;;11.60;101218.00;;;;5017927;28;20195;-83
2021/12/06 10:38:40;;;;;;;23.10;12.10;;;;;11.60;101205.00;;;;5020568;28;20761;-83
2021/12/06 10:41:09;;;;;;;24.67;13.52;;;;;11.70;101197.00;;;;5018317;28;20216;-82
2021/12/06 10:43:38;;;;;;;23.40;13.48;;;;;11.70;101202.00;;;;5019335;28;20196;-83
2021/12/06 10:46:08;;;;;;;24.25;12.93;;;;;11.70;101198.00;;;;5020991;28;20192;-83
2021/12/06 10:48:37;;;;;;;23.27;12.45;;;;;11.80;101188.00;;;;5016791;28;20196;-83
2021/12/06 10:51:10;;;;;;;27.17;11.93;;;;;11.80;101193.00;;;;5015969;28;20216;-83
2021/12/06 10:53:43;;;;;;;19.52;11.35;;;;;11.80;101180.00;;;;5020495;28;20204;-83
2021/12/06 10:56:18;;;;;;;22.23;11.60;;;;;11.70;101176.00;;;;5015917;28;20224;-83
2021/12/06 10:58:46;;;;;;;23.10;12.77;;;;;11.70;101188.00;;;;5022098;28;20330;-84
2021/12/06 11:01:16;;;;;;;21.48;12.05;;;;;11.70;101175.00;;;;5022170;28;20192;-85
2021/12/06 11:03:47;;;;;;;21.13;11.40;;;;;11.80;101168.00;;;;5025522;28;20693;-83
2021/12/06 11:06:20;;;;;;;18.23;10.82;;;;;11.70;101165.00;;;;5024021;28;20279;-81
2021/12/06 11:08:49;;;;;;;16.52;9.82;;;;;11.70;101164.00;;;;5021329;28;20887;-85
2021/12/06 11:11:20;;;;;;;17.95;10.07;;;;;11.70;101165.00;;;;5022636;28;20219;-83
2021/12/06 11:13:51;;;;;;;17.10;9.85;;;;;11.70;101152.00;;;;5024341;28;20192;-83
2021/12/06 11:16:21;;;;;;;15.70;9.75;;;;;11.70;101136.00;;;;5027341;28;20192;-83
2021/12/06 11:18:52;;;;;;;17.27;10.23;;;;;11.70;101136.00;;;;5025988;28;20354;-82
2021/12/06 11:21:27;;;;;;;18.60;9.98;;;;;11.60;101135.00;;;;5028984;28;20315;-80
2021/12/06 11:24:11;;;;;;;16.33;9.20;;;;;11.60;101131.00;;;;5025545;28;20200;-81
2021/12/06 11:26:41;;;;;;;18.60;9.35;;;;;11.60;101137.00;;;;5029565;28;20196;-82
2021/12/06 11:29:11;;;;;;;16.38;10.02;;;;;11.60;101132.00;;;;5025552;28;20210;-81
2021/12/06 11:31:41;;;;;;;17.13;9.15;;;;;11.60;101133.00;;;;5015131;28;20192;-82
2021/12/06 11:34:10;;;;;;;17.15;9.00;;;;;11.60;101122.00;;;;5027532;28;20215;-83
2021/12/06 11:36:43;;;;;;;16.38;8.90;;;;;11.60;101123.00;;;;5027312;28;20199;-84
2021/12/06 11:39:14;;;;;;;17.48;9.73;;;;;11.60;101124.00;;;;5026530;28;20220;-82
2021/12/06 11:41:44;;;;;;;15.75;9.05;;;;;11.60;101126.00;;;;5020515;28;20207;-84
2021/12/06 11:44:20;;;;;;;15.85;9.73;;;;;11.60;101108.00;;;;5029795;28;20254;-84
2021/12/06 11:46:54;;;;;;;19.23;10.63;;;;;11.60;101108.00;;;;5021651;28;20663;-82
2021/12/06 11:49:26;;;;;;;22.58;10.52;;;;;11.60;101107.00;;;;5027163;28;20196;-81
2021/12/06 11:51:55;;;;;;;19.33;10.50;;;;;11.60;101093.00;;;;5018557;28;20768;-83
2021/12/06 11:54:22;;;;;;;17.08;9.90;;;;;11.70;101090.00;;;;5027945;28;20605;-83
2021/12/06 11:56:51;;;;;;;16.35;9.60;;;;;11.70;101095.00;;;;5028665;28;20700;-83
2021/12/06 11:59:20;;;;;;;17.88;9.70;;;;;11.60;101084.00;;;;5027523;28;20258;-82
2021/12/06 12:01:51;;;;;;;17.30;9.23;;;;;11.70;101085.00;;;;5028634;28;20211;-83
2021/12/06 12:04:22;;;;;;;17.75;10.25;;;;;11.70;101082.00;;;;5027735;28;20196;-83
2021/12/06 12:06:55;;;;;;;15.30;8.50;;;;;11.60;101085.00;;;;5028413;28;20200;-82
2021/12/06 12:09:26;;;;;;;14.80;8.13;;;;;11.70;101078.00;;;;5027322;28;20212;-81
2021/12/06 12:12:00;;;;;;;16.00;8.80;;;;;11.60;101066.00;;;;5026860;28;20228;-82